Abraham, Utah
Current Conditions -  °F | °C
As of 2:35 AM on Sunday 21 Dec 2014 (Local Time) from KDTA Reporting Station
Clear Clear  
Wind Chill: 25°   Ceiling: Unl
Heat Index: 34°   Visibility: 10mi
Dew Point: 30°   Wind: 12mph
Humidity: 87%   Direction: 170°S
Pressure: 30.07"   Gusts: NA
Location:  39.4463°N, 112.85°W
Report Text: KDTA 210935Z AUTO 17010KT 10SM CLR 01/M01 A3007 RMK AO1 T00101010
Loading
Personal Weather Stations






























Interactive Weather Map New forecast layout! Learn more

10-Day Weather Forecast

Advertisements
Track Severe Weather on mobile